Here is the Quick Look data you requested

The Data originates at the National Weather Service, and is made available here by the UAlbany Department of Atmospheric and Environmental Sciences

Surface Observations

KFDK 220350Z AUTO 36003KT 10SM SCT070 OVC110 14/07 A3014 RMK AO2 LTG DSNT W=
KFDK 220410Z AUTO 00000KT 10SM SCT070 BKN075 OVC120 14/07 A3014 RMK AO2=
KFDK 220430Z AUTO 00000KT 10SM SCT075 BKN090 13/08 A3015 RMK AO2=
KFDK 220450Z AUTO 00000KT 10SM BKN090 13/08 A3015 RMK AO2=
KFDK 220510Z AUTO 00000KT 10SM OVC090 13/08 A3015 RMK AO2 LTG DSNT SE=
KFDK 220530Z AUTO 00000KT 10SM OVC090 13/08 A3015 RMK AO2=
KFDK 220550Z AUTO 00000KT 10SM OVC100 13/08 A3015 RMK AO2=
KFDK 220610Z AUTO 00000KT 10SM OVC100 12/08 A3014 RMK AO2=
KFDK 220630Z AUTO 00000KT 10SM SCT100 11/09 A3014 RMK AO2 LTG DSNT E=
KFDK 220650Z AUTO 00000KT 10SM CLR 11/09 A3013 RMK AO2 LTG DSNT E=
KFDK 220710Z AUTO 00000KT 10SM CLR 10/08 A3013 RMK AO2=
KFDK 220730Z AUTO 00000KT 10SM CLR 10/08 A3012 RMK AO2 LTG DSNT SE AND W=
KFDK 220750Z AUTO 00000KT 10SM CLR 10/09 A3013 RMK AO2 LTG DSNT SE=
KFDK 220810Z AUTO 00000KT 10SM CLR 10/09 A3014 RMK AO2=
KFDK 220830Z AUTO 00000KT 10SM CLR 10/09 A3013 RMK AO2 LTG DSNT SE=
KFDK 220850Z AUTO 00000KT 10SM CLR 09/08 A3012 RMK AO2 LTG DSNT SE=
KFDK 220910Z AUTO 00000KT 10SM CLR 10/08 A3012 RMK AO2 LTG DSNT SE=
KFDK 220930Z AUTO 15003KT 10SM CLR 10/08 A3012 RMK AO2=
KFDK 220950Z AUTO 19003KT 10SM SCT085 09/08 A3014 RMK AO2 LTG DSNT SE=
KFDK 221010Z AUTO 00000KT 10SM BKN085 09/08 A3015 RMK AO2=
KFDK 221030Z AUTO 00000KT 10SM OVC085 10/08 A3016 RMK AO2 LTG DSNT SE=
KFDK 221050Z AUTO 00000KT 10SM BKN085 10/07 A3017 RMK AO2=
KFDK 221047Z 00000KT 10SM SCT085 11/08 A3017=
KFDK 221105Z AUTO 00000KT 10SM SCT085 10/07 A3017 RMK AO2=
KFDK 221147Z 00000KT 10SM SKC 11/09 A3018=
KFDK 221247Z 00000KT 10SM SKC 13/10 A3019=
KFDK 221347Z 33007KT 10SM BKN034 BKN045 17/11 A3019=
KFDK 221447Z 35006G10KT 10SM BKN039 OVC048 16/09 A3020=
KFDK 221547Z 35006G10KT 10SM SCT050 17/09 A3020=
KFDK 221647Z 32008KT 10SM SCT075 19/09 A3018=
KFDK 221747Z 33006KT 10SM SKC 21/11 A3015=
KFDK 221848Z 03005KT 10SM SCT050 21/09 A3012=
KFDK 221947Z 36008KT 10SM BKN050 22/09 A3010=
KFDK 222047Z 02008KT 10SM SCT055 22/08 A3008=
KFDK 222147Z 04006KT 10SM BKN055 23/09 A3009=
KFDK 222247Z 04003KT 10SM SKC 22/11 A3009=
KFDK 222347Z 00000KT 10SM SKC 19/11 A3009=
KFDK 230047Z 00000KT 10SM SKC 17/11 A3010=
KFDK 230130Z AUTO 00000KT 10SM CLR 13/11 A3011 RMK AO2=
KFDK 230150Z AUTO 00000KT 10SM CLR 15/11 A3011 RMK AO2=
KFDK 230210Z AUTO 14003KT 10SM CLR 14/11 A3011 RMK AO2=
KFDK 230230Z AUTO 00000KT 10SM CLR 13/11 A3011 RMK AO2=
KFDK 230250Z AUTO 00000KT 10SM CLR 13/11 A3011 RMK AO2=
KFDK 230310Z AUTO 00000KT 10SM CLR 13/11 A3011 RMK AO2=
KFDK 230330Z AUTO 00000KT 10SM CLR 12/11 A3011 RMK AO2=
KFDK 230350Z AUTO 00000KT 10SM CLR 12/10 A3011 RMK AO2=
KFDK 230410Z AUTO 00000KT 10SM CLR 12/10 A3011 RMK AO2=
KFDK 230430Z AUTO 17003KT 10SM CLR 12/11 A3011 RMK AO2=
KFDK 230450Z AUTO 00000KT 10SM CLR 12/10 A3011 RMK AO2=
KFDK 230510Z AUTO 00000KT 10SM CLR 11/11 A3011 RMK AO2=
KFDK 230530Z AUTO 00000KT 10SM CLR 11/10 A3011 RMK AO2=
KFDK 230550Z AUTO 00000KT 10SM CLR 11/10 A3011 RMK AO2 LTG DSNT W=
KFDK 230610Z AUTO 00000KT 10SM CLR 11/10 A3010 RMK AO2=
KFDK 230630Z AUTO 00000KT 10SM CLR 10/10 A3010 RMK AO2=
KFDK 230650Z AUTO 00000KT 10SM CLR 11/10 A3010 RMK AO2=
KFDK 230710Z AUTO 00000KT 10SM CLR 10/10 A3009 RMK AO2=
KFDK 230730Z AUTO 00000KT 10SM CLR 10/10 A3008 RMK AO2=
KFDK 230750Z AUTO 13004KT 10SM CLR 10/10 A3008 RMK AO2=
KFDK 230810Z AUTO 00000KT 10SM CLR 08/08 A3008 RMK AO2=
KFDK 230830Z AUTO 00000KT 10SM CLR 10/09 A3008 RMK AO2=
KFDK 230850Z AUTO 00000KT 10SM CLR 09/08 A3008 RMK AO2=
KFDK 230910Z AUTO 00000KT 10SM CLR 08/08 A3008 RMK AO2=
KFDK 230930Z AUTO 00000KT 10SM CLR 09/08 A3008 RMK AO2 LTG DSNT W=
KFDK 230950Z AUTO 00000KT 2 1/2SM BR CLR 08/08 A3009 RMK AO2 VIS 1V5=
KFDK 231010Z AUTO 00000KT 3/4SM BR VV005 09/09 A3009 RMK AO2=
KFDK 231030Z AUTO 00000KT 1 3/4SM BR VV007 08/08 A3009 RMK AO2 VIS 1V5=